Terminal Aerodrome Forecast
Issued by NWS

Home | Current Version | Previous Version | Text Only | Print | Product List | Glossary On
Versions: 1 2 3 4 5 6 7 8 9 10 11 12
000
FTUS45 KVEF 100528
TAFEED
TAF
KEED 100528Z 1006/1106 31006KT P6SM FEW070 BKN250
     FM101500 VRB05KT P6SM FEW070 BKN250
     FM102000 17006KT P6SM SCT070 BKN250
     FM110200 24006KT P6SM SCT070 OVC250=

USA.gov is the U.S. government's official web portal to all federal, state and local government web resources and services.